sensor_id;sensor_type;location;lat;lon;timestamp;temperature;humidity
16040;DHT22;8124;48.634;8.120;2024-03-08T00:01:16;5.80;99.90
16040;DHT22;8124;48.634;8.120;2024-03-08T00:06:20;6.10;99.90
16040;DHT22;8124;48.634;8.120;2024-03-08T00:11:23;6.10;99.90
16040;DHT22;8124;48.634;8.120;2024-03-08T00:16:29;6.00;99.90
16040;DHT22;8124;48.634;8.120;2024-03-08T00:21:32;6.10;99.90
16040;DHT22;8124;48.634;8.120;2024-03-08T00:26:35;6.10;99.90
16040;DHT22;8124;48.634;8.120;2024-03-08T00:31:39;6.20;99.90
16040;DHT22;8124;48.634;8.120;2024-03-08T00:36:42;5.90;99.90
16040;DHT22;8124;48.634;8.120;2024-03-08T00:41:45;6.00;99.90
16040;DHT22;8124;48.634;8.120;2024-03-08T00:46:50;6.10;99.90
16040;DHT22;8124;48.634;8.120;2024-03-08T00:51:56;6.10;99.90
16040;DHT22;8124;48.634;8.120;2024-03-08T00:56:59;6.30;99.90
16040;DHT22;8124;48.634;8.120;2024-03-08T01:02:06;6.00;99.90
16040;DHT22;8124;48.634;8.120;2024-03-08T01:07:10;5.80;99.90
16040;DHT22;8124;48.634;8.120;2024-03-08T01:12:13;6.00;99.90
16040;DHT22;8124;48.634;8.120;2024-03-08T01:17:18;6.00;99.90
16040;DHT22;8124;48.634;8.120;2024-03-08T01:22:21;5.90;99.90
16040;DHT22;8124;48.634;8.120;2024-03-08T01:27:24;6.00;99.90
16040;DHT22;8124;48.634;8.120;2024-03-08T01:32:29;5.80;99.90
16040;DHT22;8124;48.634;8.120;2024-03-08T01:37:32;5.90;99.90
16040;DHT22;8124;48.634;8.120;2024-03-08T01:42:35;5.50;99.90
16040;DHT22;8124;48.634;8.120;2024-03-08T01:47:40;5.70;99.90
16040;DHT22;8124;48.634;8.120;2024-03-08T01:52:44;5.50;99.90
16040;DHT22;8124;48.634;8.120;2024-03-08T01:57:47;5.70;99.90
16040;DHT22;8124;48.634;8.120;2024-03-08T02:02:54;5.70;99.90
16040;DHT22;8124;48.634;8.120;2024-03-08T02:07:57;5.90;99.90
16040;DHT22;8124;48.634;8.120;2024-03-08T02:13:01;5.60;99.90
16040;DHT22;8124;48.634;8.120;2024-03-08T02:18:06;5.70;99.90
16040;DHT22;8124;48.634;8.120;2024-03-08T02:23:11;5.90;99.90
16040;DHT22;8124;48.634;8.120;2024-03-08T02:28:15;5.90;99.90
16040;DHT22;8124;48.634;8.120;2024-03-08T02:33:20;5.80;99.90
16040;DHT22;8124;48.634;8.120;2024-03-08T02:38:24;5.90;99.90
16040;DHT22;8124;48.634;8.120;2024-03-08T02:43:27;5.80;99.90
16040;DHT22;8124;48.634;8.120;2024-03-08T02:48:30;5.90;99.90
16040;DHT22;8124;48.634;8.120;2024-03-08T02:53:35;5.80;99.90
16040;DHT22;8124;48.634;8.120;2024-03-08T02:58:39;5.80;99.90
16040;DHT22;8124;48.634;8.120;2024-03-08T03:03:42;5.80;99.90
16040;DHT22;8124;48.634;8.120;2024-03-08T03:08:47;5.60;99.90
16040;DHT22;8124;48.634;8.120;2024-03-08T03:13:50;5.60;99.90
16040;DHT22;8124;48.634;8.120;2024-03-08T03:18:53;5.60;99.90
16040;DHT22;8124;48.634;8.120;2024-03-08T03:23:59;5.60;99.90
16040;DHT22;8124;48.634;8.120;2024-03-08T03:29:02;4.90;99.90
16040;DHT22;8124;48.634;8.120;2024-03-08T03:34:05;5.00;99.90
16040;DHT22;8124;48.634;8.120;2024-03-08T03:39:11;5.00;99.90
16040;DHT22;8124;48.634;8.120;2024-03-08T03:44:18;4.70;99.90
16040;DHT22;8124;48.634;8.120;2024-03-08T03:49:21;5.00;99.90
16040;DHT22;8124;48.634;8.120;2024-03-08T03:54:26;4.80;99.90
16040;DHT22;8124;48.634;8.120;2024-03-08T03:59:32;5.10;99.90
16040;DHT22;8124;48.634;8.120;2024-03-08T04:04:35;5.00;99.90
16040;DHT22;8124;48.634;8.120;2024-03-08T04:09:39;5.10;99.90
16040;DHT22;8124;48.634;8.120;2024-03-08T04:14:42;5.00;99.90
16040;DHT22;8124;48.634;8.120;2024-03-08T04:19:46;4.80;99.90
16040;DHT22;8124;48.634;8.120;2024-03-08T04:24:51;4.80;99.90
16040;DHT22;8124;48.634;8.120;2024-03-08T04:29:54;5.00;99.90
16040;DHT22;8124;48.634;8.120;2024-03-08T04:34:58;4.80;99.90
16040;DHT22;8124;48.634;8.120;2024-03-08T04:40:05;4.90;99.90
16040;DHT22;8124;48.634;8.120;2024-03-08T04:45:09;4.90;99.90
16040;DHT22;8124;48.634;8.120;2024-03-08T04:50:13;4.60;99.90
16040;DHT22;8124;48.634;8.120;2024-03-08T04:55:17;4.50;99.90
16040;DHT22;8124;48.634;8.120;2024-03-08T05:00:22;4.80;99.90
16040;DHT22;8124;48.634;8.120;2024-03-08T05:05:25;4.30;99.90
16040;DHT22;8124;48.634;8.120;2024-03-08T05:10:31;4.50;99.90
16040;DHT22;8124;48.634;8.120;2024-03-08T05:15:34;4.50;99.90
16040;DHT22;8124;48.634;8.120;2024-03-08T05:20:38;4.60;99.90
16040;DHT22;8124;48.634;8.120;2024-03-08T05:25:42;4.50;99.90
16040;DHT22;8124;48.634;8.120;2024-03-08T05:30:45;4.70;99.90
16040;DHT22;8124;48.634;8.120;2024-03-08T05:35:48;4.20;99.90
16040;DHT22;8124;48.634;8.120;2024-03-08T05:40:52;4.20;99.90
16040;DHT22;8124;48.634;8.120;2024-03-08T05:45:55;4.30;99.90
16040;DHT22;8124;48.634;8.120;2024-03-08T05:50:59;4.50;99.90
16040;DHT22;8124;48.634;8.120;2024-03-08T05:56:05;4.40;99.90
16040;DHT22;8124;48.634;8.120;2024-03-08T06:01:08;4.30;99.90
16040;DHT22;8124;48.634;8.120;2024-03-08T06:06:14;4.20;99.90
16040;DHT22;8124;48.634;8.120;2024-03-08T06:11:21;4.30;99.90
16040;DHT22;8124;48.634;8.120;2024-03-08T06:16:24;4.20;99.90
16040;DHT22;8124;48.634;8.120;2024-03-08T06:21:30;4.10;99.90
16040;DHT22;8124;48.634;8.120;2024-03-08T06:26:36;4.20;99.90
16040;DHT22;8124;48.634;8.120;2024-03-08T06:31:41;4.30;99.90
16040;DHT22;8124;48.634;8.120;2024-03-08T06:36:43;4.20;99.90
16040;DHT22;8124;48.634;8.120;2024-03-08T06:41:48;4.20;99.90
16040;DHT22;8124;48.634;8.120;2024-03-08T06:46:53;4.10;99.90
16040;DHT22;8124;48.634;8.120;2024-03-08T06:51:59;4.20;99.90
16040;DHT22;8124;48.634;8.120;2024-03-08T06:57:04;4.20;99.90
16040;DHT22;8124;48.634;8.120;2024-03-08T07:02:07;4.10;99.90
16040;DHT22;8124;48.634;8.120;2024-03-08T07:07:11;3.90;99.90
16040;DHT22;8124;48.634;8.120;2024-03-08T07:12:15;3.70;99.90
16040;DHT22;8124;48.634;8.120;2024-03-08T07:17:18;3.90;99.90
16040;DHT22;8124;48.634;8.120;2024-03-08T07:22:21;4.10;99.90
16040;DHT22;8124;48.634;8.120;2024-03-08T07:27:26;4.30;99.90
16040;DHT22;8124;48.634;8.120;2024-03-08T07:32:30;4.30;99.90
16040;DHT22;8124;48.634;8.120;2024-03-08T07:37:33;4.20;99.90
16040;DHT22;8124;48.634;8.120;2024-03-08T07:42:38;4.40;99.90
16040;DHT22;8124;48.634;8.120;2024-03-08T07:47:40;4.70;99.90
16040;DHT22;8124;48.634;8.120;2024-03-08T07:52:43;4.80;99.90
16040;DHT22;8124;48.634;8.120;2024-03-08T07:57:48;5.00;99.90
16040;DHT22;8124;48.634;8.120;2024-03-08T08:02:51;5.20;99.90
16040;DHT22;8124;48.634;8.120;2024-03-08T08:07:54;5.60;99.90
16040;DHT22;8124;48.634;8.120;2024-03-08T08:12:59;6.00;99.90
16040;DHT22;8124;48.634;8.120;2024-03-08T08:18:04;6.20;99.90
16040;DHT22;8124;48.634;8.120;2024-03-08T08:23:09;6.40;99.90
16040;DHT22;8124;48.634;8.120;2024-03-08T08:28:14;6.20;99.90
16040;DHT22;8124;48.634;8.120;2024-03-08T08:33:19;6.20;99.90
16040;DHT22;8124;48.634;8.120;2024-03-08T08:38:22;6.00;99.90
16040;DHT22;8124;48.634;8.120;2024-03-08T08:43:27;6.20;99.90
16040;DHT22;8124;48.634;8.120;2024-03-08T08:48:30;6.30;99.90
16040;DHT22;8124;48.634;8.120;2024-03-08T08:53:33;6.50;99.90
16040;DHT22;8124;48.634;8.120;2024-03-08T08:58:38;6.40;99.90
16040;DHT22;8124;48.634;8.120;2024-03-08T09:03:41;6.30;99.90
16040;DHT22;8124;48.634;8.120;2024-03-08T09:08:48;6.50;99.90
16040;DHT22;8124;48.634;8.120;2024-03-08T09:13:52;7.00;99.90
16040;DHT22;8124;48.634;8.120;2024-03-08T09:18:55;6.80;99.90
16040;DHT22;8124;48.634;8.120;2024-03-08T09:23:58;6.80;99.90
16040;DHT22;8124;48.634;8.120;2024-03-08T09:29:03;6.80;99.90
16040;DHT22;8124;48.634;8.120;2024-03-08T09:34:07;7.00;99.90
16040;DHT22;8124;48.634;8.120;2024-03-08T09:39:11;6.80;99.90
16040;DHT22;8124;48.634;8.120;2024-03-08T09:44:19;6.70;99.90
16040;DHT22;8124;48.634;8.120;2024-03-08T09:49:22;6.80;99.90
16040;DHT22;8124;48.634;8.120;2024-03-08T09:54:25;6.90;99.90
16040;DHT22;8124;48.634;8.120;2024-03-08T09:59:30;7.00;99.90
16040;DHT22;8124;48.634;8.120;2024-03-08T10:04:45;7.00;99.90
16040;DHT22;8124;48.634;8.120;2024-03-08T10:09:52;7.20;99.90
16040;DHT22;8124;48.634;8.120;2024-03-08T10:14:58;7.40;99.90
16040;DHT22;8124;48.634;8.120;2024-03-08T10:20:02;7.40;99.90
16040;DHT22;8124;48.634;8.120;2024-03-08T10:25:16;7.50;99.90
16040;DHT22;8124;48.634;8.120;2024-03-08T10:30:21;7.80;99.90
16040;DHT22;8124;48.634;8.120;2024-03-08T10:35:24;8.00;99.90
16040;DHT22;8124;48.634;8.120;2024-03-08T10:40:28;8.10;99.90
16040;DHT22;8124;48.634;8.120;2024-03-08T10:45:35;8.10;99.90
16040;DHT22;8124;48.634;8.120;2024-03-08T10:50:38;8.10;99.90
16040;DHT22;8124;48.634;8.120;2024-03-08T10:55:42;8.20;99.90
16040;DHT22;8124;48.634;8.120;2024-03-08T11:00:48;8.70;99.90
16040;DHT22;8124;48.634;8.120;2024-03-08T11:05:52;8.70;99.90
16040;DHT22;8124;48.634;8.120;2024-03-08T11:10:55;8.70;99.90
16040;DHT22;8124;48.634;8.120;2024-03-08T11:16:00;8.70;99.90
16040;DHT22;8124;48.634;8.120;2024-03-08T11:21:03;9.10;99.90
16040;DHT22;8124;48.634;8.120;2024-03-08T11:26:17;8.90;99.90
16040;DHT22;8124;48.634;8.120;2024-03-08T11:31:25;9.00;99.90
16040;DHT22;8124;48.634;8.120;2024-03-08T11:36:30;9.00;99.90
16040;DHT22;8124;48.634;8.120;2024-03-08T11:41:38;9.20;99.90
16040;DHT22;8124;48.634;8.120;2024-03-08T11:46:44;9.20;99.90
16040;DHT22;8124;48.634;8.120;2024-03-08T11:51:52;9.40;99.90
16040;DHT22;8124;48.634;8.120;2024-03-08T11:56:56;9.50;99.90
16040;DHT22;8124;48.634;8.120;2024-03-08T12:02:06;9.90;99.90
16040;DHT22;8124;48.634;8.120;2024-03-08T12:07:12;9.80;99.90
16040;DHT22;8124;48.634;8.120;2024-03-08T12:12:16;9.70;99.90
16040;DHT22;8124;48.634;8.120;2024-03-08T12:17:20;9.80;99.90
16040;DHT22;8124;48.634;8.120;2024-03-08T12:22:25;9.80;99.90
16040;DHT22;8124;48.634;8.120;2024-03-08T12:27:28;9.90;99.90
16040;DHT22;8124;48.634;8.120;2024-03-08T12:32:32;10.00;99.90
16040;DHT22;8124;48.634;8.120;2024-03-08T12:37:35;10.20;99.90
16040;DHT22;8124;48.634;8.120;2024-03-08T12:42:39;10.40;99.90
16040;DHT22;8124;48.634;8.120;2024-03-08T12:47:44;10.40;99.90
16040;DHT22;8124;48.634;8.120;2024-03-08T12:52:48;10.40;99.90
16040;DHT22;8124;48.634;8.120;2024-03-08T12:57:55;10.50;99.90
16040;DHT22;8124;48.634;8.120;2024-03-08T13:03:00;10.40;99.90
16040;DHT22;8124;48.634;8.120;2024-03-08T13:08:05;10.30;99.90
16040;DHT22;8124;48.634;8.120;2024-03-08T13:13:14;10.40;99.90
16040;DHT22;8124;48.634;8.120;2024-03-08T13:18:21;10.60;99.90
16040;DHT22;8124;48.634;8.120;2024-03-08T13:23:25;10.50;99.90
16040;DHT22;8124;48.634;8.120;2024-03-08T13:28:29;10.70;99.90
16040;DHT22;8124;48.634;8.120;2024-03-08T13:33:34;10.80;99.90
16040;DHT22;8124;48.634;8.120;2024-03-08T13:38:39;10.60;99.90
16040;DHT22;8124;48.634;8.120;2024-03-08T13:43:46;10.50;99.90
16040;DHT22;8124;48.634;8.120;2024-03-08T13:48:54;10.50;99.90
16040;DHT22;8124;48.634;8.120;2024-03-08T13:54:03;10.70;99.90
16040;DHT22;8124;48.634;8.120;2024-03-08T13:59:08;10.80;99.90
16040;DHT22;8124;48.634;8.120;2024-03-08T14:04:14;10.90;99.90
16040;DHT22;8124;48.634;8.120;2024-03-08T14:09:19;10.80;99.90
16040;DHT22;8124;48.634;8.120;2024-03-08T14:14:23;10.90;99.90
16040;DHT22;8124;48.634;8.120;2024-03-08T14:19:27;11.10;99.90
16040;DHT22;8124;48.634;8.120;2024-03-08T14:24:36;11.00;99.90
16040;DHT22;8124;48.634;8.120;2024-03-08T14:29:41;11.00;99.90
16040;DHT22;8124;48.634;8.120;2024-03-08T14:34:51;10.90;99.90
16040;DHT22;8124;48.634;8.120;2024-03-08T14:40:00;10.90;99.90
16040;DHT22;8124;48.634;8.120;2024-03-08T14:45:08;10.90;99.90
16040;DHT22;8124;48.634;8.120;2024-03-08T14:50:17;10.90;99.90
16040;DHT22;8124;48.634;8.120;2024-03-08T14:55:28;11.10;99.90
16040;DHT22;8124;48.634;8.120;2024-03-08T15:00:34;11.20;99.90
16040;DHT22;8124;48.634;8.120;2024-03-08T15:05:51;11.20;99.90
16040;DHT22;8124;48.634;8.120;2024-03-08T15:11:31;11.20;99.90
16040;DHT22;8124;48.634;8.120;2024-03-08T15:16:49;11.30;99.90
16040;DHT22;8124;48.634;8.120;2024-03-08T15:21:54;11.30;99.90
16040;DHT22;8124;48.634;8.120;2024-03-08T15:26:58;11.30;99.90
16040;DHT22;8124;48.634;8.120;2024-03-08T15:32:04;11.40;99.90
16040;DHT22;8124;48.634;8.120;2024-03-08T15:37:10;11.40;99.90
16040;DHT22;8124;48.634;8.120;2024-03-08T15:42:18;11.60;99.90
16040;DHT22;8124;48.634;8.120;2024-03-08T15:47:21;12.00;99.90
16040;DHT22;8124;48.634;8.120;2024-03-08T15:52:29;12.10;99.90
16040;DHT22;8124;48.634;8.120;2024-03-08T15:57:32;12.40;99.90
16040;DHT22;8124;48.634;8.120;2024-03-08T16:02:39;12.30;99.90
16040;DHT22;8124;48.634;8.120;2024-03-08T16:07:44;12.30;99.90
16040;DHT22;8124;48.634;8.120;2024-03-08T16:12:47;12.20;99.90
16040;DHT22;8124;48.634;8.120;2024-03-08T16:17:50;11.90;99.90
16040;DHT22;8124;48.634;8.120;2024-03-08T16:22:55;12.00;99.90
16040;DHT22;8124;48.634;8.120;2024-03-08T16:27:58;11.90;99.90
16040;DHT22;8124;48.634;8.120;2024-03-08T16:33:01;12.00;99.90
16040;DHT22;8124;48.634;8.120;2024-03-08T16:38:06;11.90;99.90
16040;DHT22;8124;48.634;8.120;2024-03-08T16:43:10;11.90;99.90
16040;DHT22;8124;48.634;8.120;2024-03-08T16:48:13;11.70;99.60
16040;DHT22;8124;48.634;8.120;2024-03-08T16:53:19;11.70;99.90
16040;DHT22;8124;48.634;8.120;2024-03-08T16:58:22;11.60;99.90
16040;DHT22;8124;48.634;8.120;2024-03-08T17:03:25;11.70;99.90
16040;DHT22;8124;48.634;8.120;2024-03-08T17:08:30;11.60;99.90
16040;DHT22;8124;48.634;8.120;2024-03-08T17:13:34;11.20;99.90
16040;DHT22;8124;48.634;8.120;2024-03-08T17:18:38;11.20;99.90
16040;DHT22;8124;48.634;8.120;2024-03-08T17:23:42;11.20;99.90
16040;DHT22;8124;48.634;8.120;2024-03-08T17:28:46;11.30;99.90
16040;DHT22;8124;48.634;8.120;2024-03-08T17:33:49;11.20;99.90
16040;DHT22;8124;48.634;8.120;2024-03-08T17:38:54;11.30;99.90
16040;DHT22;8124;48.634;8.120;2024-03-08T17:43:59;11.00;99.90
16040;DHT22;8124;48.634;8.120;2024-03-08T17:49:02;11.10;99.90
16040;DHT22;8124;48.634;8.120;2024-03-08T17:54:07;11.10;99.90
16040;DHT22;8124;48.634;8.120;2024-03-08T17:59:12;11.00;99.90
16040;DHT22;8124;48.634;8.120;2024-03-08T18:04:15;11.00;99.90
16040;DHT22;8124;48.634;8.120;2024-03-08T18:09:19;11.00;99.90
16040;DHT22;8124;48.634;8.120;2024-03-08T18:14:25;10.70;99.90
16040;DHT22;8124;48.634;8.120;2024-03-08T18:19:28;10.40;99.90
16040;DHT22;8124;48.634;8.120;2024-03-08T18:24:34;10.60;99.90
16040;DHT22;8124;48.634;8.120;2024-03-08T18:29:37;10.60;99.90
16040;DHT22;8124;48.634;8.120;2024-03-08T18:34:41;10.50;99.90
16040;DHT22;8124;48.634;8.120;2024-03-08T18:39:47;10.30;99.90
16040;DHT22;8124;48.634;8.120;2024-03-08T18:44:51;10.30;99.90
16040;DHT22;8124;48.634;8.120;2024-03-08T18:49:54;10.20;99.90
16040;DHT22;8124;48.634;8.120;2024-03-08T18:54:59;10.10;99.90
16040;DHT22;8124;48.634;8.120;2024-03-08T19:00:02;9.80;99.90
16040;DHT22;8124;48.634;8.120;2024-03-08T19:05:14;9.60;99.90
16040;DHT22;8124;48.634;8.120;2024-03-08T19:10:21;9.50;99.90
16040;DHT22;8124;48.634;8.120;2024-03-08T19:15:25;9.60;99.90
16040;DHT22;8124;48.634;8.120;2024-03-08T19:20:29;9.70;99.90
16040;DHT22;8124;48.634;8.120;2024-03-08T19:25:37;9.40;99.90
16040;DHT22;8124;48.634;8.120;2024-03-08T19:30:43;9.60;99.90
16040;DHT22;8124;48.634;8.120;2024-03-08T19:35:46;9.60;99.90
16040;DHT22;8124;48.634;8.120;2024-03-08T19:40:51;9.70;99.90
16040;DHT22;8124;48.634;8.120;2024-03-08T19:45:55;9.70;99.90
16040;DHT22;8124;48.634;8.120;2024-03-08T19:50:59;9.60;99.90
16040;DHT22;8124;48.634;8.120;2024-03-08T19:56:08;9.40;99.90
16040;DHT22;8124;48.634;8.120;2024-03-08T20:01:11;9.40;99.90
16040;DHT22;8124;48.634;8.120;2024-03-08T20:06:17;9.40;99.90
16040;DHT22;8124;48.634;8.120;2024-03-08T20:11:21;9.40;99.90
16040;DHT22;8124;48.634;8.120;2024-03-08T20:16:26;9.50;99.90
16040;DHT22;8124;48.634;8.120;2024-03-08T20:21:29;9.40;99.90
16040;DHT22;8124;48.634;8.120;2024-03-08T20:26:33;9.10;99.90
16040;DHT22;8124;48.634;8.120;2024-03-08T20:31:38;9.30;99.90
16040;DHT22;8124;48.634;8.120;2024-03-08T20:36:41;9.20;99.90
16040;DHT22;8124;48.634;8.120;2024-03-08T20:41:46;9.10;99.90
16040;DHT22;8124;48.634;8.120;2024-03-08T20:46:50;9.30;99.90
16040;DHT22;8124;48.634;8.120;2024-03-08T20:51:53;9.20;99.90
16040;DHT22;8124;48.634;8.120;2024-03-08T20:56:58;8.90;99.90
16040;DHT22;8124;48.634;8.120;2024-03-08T21:02:03;9.00;99.90
16040;DHT22;8124;48.634;8.120;2024-03-08T21:07:08;9.10;99.90
16040;DHT22;8124;48.634;8.120;2024-03-08T21:12:12;9.20;99.90
16040;DHT22;8124;48.634;8.120;2024-03-08T21:17:18;9.10;99.90
16040;DHT22;8124;48.634;8.120;2024-03-08T21:22:21;9.10;99.90
16040;DHT22;8124;48.634;8.120;2024-03-08T21:27:26;9.20;99.90
16040;DHT22;8124;48.634;8.120;2024-03-08T21:32:29;9.30;99.90
16040;DHT22;8124;48.634;8.120;2024-03-08T21:37:32;9.30;99.90
16040;DHT22;8124;48.634;8.120;2024-03-08T21:42:37;9.30;99.90
16040;DHT22;8124;48.634;8.120;2024-03-08T21:47:40;9.40;99.90
16040;DHT22;8124;48.634;8.120;2024-03-08T21:52:43;9.40;99.90
16040;DHT22;8124;48.634;8.120;2024-03-08T21:57:47;9.40;99.90
16040;DHT22;8124;48.634;8.120;2024-03-08T22:02:51;9.30;99.90
16040;DHT22;8124;48.634;8.120;2024-03-08T22:07:54;9.40;99.90
16040;DHT22;8124;48.634;8.120;2024-03-08T22:12:59;9.50;99.90
16040;DHT22;8124;48.634;8.120;2024-03-08T22:18:02;9.50;99.90
16040;DHT22;8124;48.634;8.120;2024-03-08T22:23:05;9.40;99.90
16040;DHT22;8124;48.634;8.120;2024-03-08T22:28:09;9.40;99.90
16040;DHT22;8124;48.634;8.120;2024-03-08T22:33:14;9.50;99.90
16040;DHT22;8124;48.634;8.120;2024-03-08T22:38:17;9.50;99.90
16040;DHT22;8124;48.634;8.120;2024-03-08T22:43:23;9.40;99.90
16040;DHT22;8124;48.634;8.120;2024-03-08T22:48:26;9.50;99.90
16040;DHT22;8124;48.634;8.120;2024-03-08T22:53:28;9.40;99.90
16040;DHT22;8124;48.634;8.120;2024-03-08T22:58:33;9.10;99.90
16040;DHT22;8124;48.634;8.120;2024-03-08T23:03:37;9.30;99.90
16040;DHT22;8124;48.634;8.120;2024-03-08T23:08:40;9.30;99.90
16040;DHT22;8124;48.634;8.120;2024-03-08T23:13:48;9.20;99.90
16040;DHT22;8124;48.634;8.120;2024-03-08T23:18:52;8.90;99.90
16040;DHT22;8124;48.634;8.120;2024-03-08T23:23:57;8.90;99.90
16040;DHT22;8124;48.634;8.120;2024-03-08T23:29:01;8.90;99.90
16040;DHT22;8124;48.634;8.120;2024-03-08T23:34:05;9.00;99.90
16040;DHT22;8124;48.634;8.120;2024-03-08T23:39:09;9.10;99.90
16040;DHT22;8124;48.634;8.120;2024-03-08T23:44:14;9.10;99.90
16040;DHT22;8124;48.634;8.120;2024-03-08T23:49:19;9.20;99.90
16040;DHT22;8124;48.634;8.120;2024-03-08T23:54:22;9.20;99.90
16040;DHT22;8124;48.634;8.120;2024-03-08T23:59:30;9.30;99.90
